Moveon — CQBR — position and weather

sailwx.info

Track history (hours):
 
Tides and Currents Weather Stations Pressure Air Temp Water Temp Dewpoint Dewpoint Depression Visibility Wind Speed Wind Dir Waves Ship Positions

Moveon

Last reported at 2017-Dec-10 06:49 UTC. Time now 2017-Dec-13 19:03 UTC.
Position N 37°14' W 001°04'.

Length 134 m; draft 7.5 m.

Type: Ship. MMSI: 255805846.

Date/timePositionNaut miles runAvg speedWind from/ knotsBaromVisibWave heightAir tempDewpointWater temp
2017-Dec-10 06:49N 37°14' W 001°04'616.2
2017-Dec-10 06:28N 37°18' W 000°58'1016.0
2017-Dec-10 05:51N 37°24' W 000°49'2315.7
2017-Dec-10 04:24N 37°40' W 000°28'615.0
2017-Dec-10 03:59N 37°44' W 000°22'1613.6
2017-Dec-10 02:50N 37°58' W 000°14'221 4.4
2017-Dec-08 00:54N 41°12' E 002°03'616.8
2017-Dec-08 00:31N 41°09' E 001°56'917.5
2017-Dec-08 00:00N 41°07' E 001°45'  
2017-Dec-04 10:13N 37°57' W 000°23'1815.6
2017-Dec-04 09:04N 37°40' W 000°27'115.7
2017-Dec-04 09:00N 37°39' W 000°28'1814.7
2017-Dec-04 07:47N 37°25' W 000°42'414.9
2017-Dec-04 07:30N 37°22' W 000°46'814.9
2017-Dec-04 06:59N 37°17' W 000°53'22514.2
2017-Dec-03 15:07N 35°59' W 005°17'217.5
2017-Dec-03 15:01N 35°59' W 005°19'  
2017-Nov-30 23:52N 28°41' W 014°58'514.2
2017-Nov-30 23:30N 28°40' W 015°04'814.3
2017-Nov-30 22:59N 28°39' W 015°12'714.2
2017-Nov-30 22:30N 28°38' W 015°20'814.6
2017-Nov-30 21:58N 28°36' W 015°29'713.9
2017-Nov-30 21:30N 28°35' W 015°36'1813.2
2017-Nov-30 20:08N 28°24' W 015°52'213.0
2017-Nov-30 20:00N 28°24' W 015°54'1013.8
2017-Nov-30 19:16N 28°27' W 016°05'414.1
2017-Nov-30 18:59N 28°27' W 016°10'  
Track history (hours):
 
Tides and Currents Weather Stations Pressure Air Temp Water Temp Dewpoint Dewpoint Depression Visibility Wind Speed Wind Dir Waves Ship Positions

Moveon

Last reported at 2017-Dec-10 06:49 UTC. Time now 2017-Dec-13 19:03 UTC.
Position N 37°14' W 001°04'.

Length 134 m; draft 7.5 m.

Type: Ship. MMSI: 255805846.

Date/timePositionNaut miles runAvg speedWind from/ knotsBaromVisibWave heightAir tempDewpointWater temp
2017-Dec-10 06:49N 37°14' W 001°04'616.2
2017-Dec-10 06:28N 37°18' W 000°58'1016.0
2017-Dec-10 05:51N 37°24' W 000°49'2315.7
2017-Dec-10 04:24N 37°40' W 000°28'615.0
2017-Dec-10 03:59N 37°44' W 000°22'1613.6
2017-Dec-10 02:50N 37°58' W 000°14'221 4.4
2017-Dec-08 00:54N 41°12' E 002°03'616.8
2017-Dec-08 00:31N 41°09' E 001°56'917.5
2017-Dec-08 00:00N 41°07' E 001°45'  
2017-Dec-04 10:13N 37°57' W 000°23'1815.6
2017-Dec-04 09:04N 37°40' W 000°27'115.7
2017-Dec-04 09:00N 37°39' W 000°28'1814.7
2017-Dec-04 07:47N 37°25' W 000°42'414.9
2017-Dec-04 07:30N 37°22' W 000°46'814.9
2017-Dec-04 06:59N 37°17' W 000°53'22514.2
2017-Dec-03 15:07N 35°59' W 005°17'217.5
2017-Dec-03 15:01N 35°59' W 005°19'  
2017-Nov-30 23:52N 28°41' W 014°58'514.2
2017-Nov-30 23:30N 28°40' W 015°04'814.3
2017-Nov-30 22:59N 28°39' W 015°12'714.2
2017-Nov-30 22:30N 28°38' W 015°20'814.6
2017-Nov-30 21:58N 28°36' W 015°29'713.9
2017-Nov-30 21:30N 28°35' W 015°36'1813.2
2017-Nov-30 20:08N 28°24' W 015°52'213.0
2017-Nov-30 20:00N 28°24' W 015°54'1013.8
2017-Nov-30 19:16N 28°27' W 016°05'414.1
2017-Nov-30 18:59N 28°27' W 016°10'  

Dump ship's entire track history